createdAt,value
2018-09-05T00:01:37.336Z,100212.40
2018-09-05T00:04:07.077Z,100213.73
2018-09-05T00:06:36.807Z,100213.95
2018-09-05T00:09:07.516Z,100217.19
2018-09-05T00:11:37.760Z,100212.99
2018-09-05T00:14:07.741Z,100216.37
2018-09-05T00:16:37.505Z,100210.29
2018-09-05T00:19:07.272Z,100208.75
2018-09-05T00:21:36.956Z,100205.64
2018-09-05T00:24:06.725Z,100204.45
2018-09-05T00:26:36.407Z,100204.59
2018-09-05T00:29:06.112Z,100205.05
2018-09-05T00:31:35.796Z,100206.16
2018-09-05T00:34:05.560Z,100202.02
2018-09-05T00:36:35.224Z,100207.42
2018-09-05T00:39:06.696Z,100208.44
2018-09-05T00:41:36.468Z,100211.89
2018-09-05T00:44:06.365Z,100212.30
2018-09-05T00:46:36.127Z,100209.55
2018-09-05T00:49:05.887Z,100205.56
2018-09-05T00:51:35.604Z,100202.34
2018-09-05T00:54:05.364Z,100203.24
2018-09-05T00:56:35.076Z,100202.38
2018-09-05T00:59:04.800Z,100204.44
2018-09-05T01:01:34.532Z,100209.52
2018-09-05T01:04:04.250Z,100203.65
2018-09-05T01:06:34.133Z,100199.27
2018-09-05T01:09:04.321Z,100199.14
2018-09-05T01:11:34.009Z,100203.45
2018-09-05T01:14:03.739Z,100197.42
2018-09-05T01:16:33.421Z,100192.38
2018-09-05T01:19:03.424Z,100197.78
2018-09-05T01:21:33.124Z,100196.15
2018-09-05T01:24:02.848Z,100200.53
2018-09-05T01:26:32.597Z,100198.36
2018-09-05T01:29:02.274Z,100196.70
2018-09-05T01:31:32.088Z,100200.11
2018-09-05T01:34:01.782Z,100203.27
2018-09-05T01:36:31.485Z,100206.23
2018-09-05T01:39:01.224Z,100204.94
2018-09-05T01:41:30.922Z,100202.91
2018-09-05T01:44:00.665Z,100199.55
2018-09-05T01:46:30.401Z,100203.81
2018-09-05T01:49:00.072Z,100203.67
2018-09-05T01:51:33.212Z,100204.07
2018-09-05T01:54:03.460Z,100207.05
2018-09-05T01:56:33.165Z,100210.22
2018-09-05T01:59:02.882Z,100206.59
2018-09-05T02:01:32.585Z,100212.20
2018-09-05T02:04:02.641Z,100207.19
2018-09-05T02:06:32.306Z,100204.48
2018-09-05T02:09:02.028Z,100200.44
2018-09-05T02:11:31.768Z,100204.88
2018-09-05T02:14:01.469Z,100201.27
2018-09-05T02:16:31.171Z,100204.03
2018-09-05T02:19:00.825Z,100199.64
2018-09-05T02:21:30.553Z,100209.41
2018-09-05T02:24:00.245Z,100201.95
2018-09-05T02:26:29.968Z,100204.17
2018-09-05T02:28:59.668Z,100205.75
2018-09-05T02:31:29.560Z,100205.03
2018-09-05T02:33:59.322Z,100201.92
2018-09-05T02:36:29.022Z,100203.74
2018-09-05T02:38:58.678Z,100196.28
2018-09-05T02:41:28.404Z,100199.44
2018-09-05T02:44:03.380Z,100199.61
2018-09-05T02:46:33.452Z,100203.83
2018-09-05T02:49:03.116Z,100200.50
2018-09-05T02:51:32.781Z,100206.58
2018-09-05T02:54:02.502Z,100208.36
2018-09-05T02:56:32.149Z,100213.07
2018-09-05T02:59:01.848Z,100205.94
2018-09-05T03:01:31.520Z,100212.18
2018-09-05T03:04:01.215Z,100205.38
2018-09-05T03:06:30.937Z,100203.50
2018-09-05T03:09:00.644Z,100201.77
2018-09-05T03:11:30.300Z,100207.36
2018-09-05T03:14:00.004Z,100203.02
2018-09-05T03:16:29.698Z,100204.12
2018-09-05T03:18:59.434Z,100204.55
2018-09-05T03:21:29.168Z,100204.21
2018-09-05T03:23:58.844Z,100197.71
2018-09-05T03:26:28.588Z,100198.87
2018-09-05T03:28:58.277Z,100195.84
2018-09-05T03:31:27.945Z,100202.44
2018-09-05T03:33:57.632Z,100197.00
2018-09-05T03:36:27.320Z,100201.91
2018-09-05T03:38:57.158Z,100202.50
2018-09-05T03:41:26.817Z,100204.69
2018-09-05T03:43:56.504Z,100210.37
2018-09-05T03:46:26.209Z,100211.19
2018-09-05T03:48:55.876Z,100205.76
2018-09-05T03:51:25.600Z,100209.87
2018-09-05T03:53:55.272Z,100210.13
2018-09-05T03:56:24.934Z,100211.80
2018-09-05T03:58:54.640Z,100216.52
2018-09-05T04:01:24.372Z,100210.27
2018-09-05T04:03:54.048Z,100209.17
2018-09-05T04:06:23.728Z,100210.05
2018-09-05T04:09:27.776Z,100218.70
2018-09-05T04:11:57.476Z,100224.72
2018-09-05T04:14:27.193Z,100221.90
2018-09-05T04:16:56.856Z,100221.53
2018-09-05T04:19:26.560Z,100219.14
2018-09-05T04:21:56.281Z,100218.95
2018-09-05T04:24:25.947Z,100218.28
2018-09-05T04:26:55.672Z,100216.81
2018-09-05T04:29:25.378Z,100220.18
2018-09-05T04:31:55.157Z,100224.74
2018-09-05T04:34:24.849Z,100222.45
2018-09-05T04:36:54.553Z,100218.03
2018-09-05T04:39:24.405Z,100219.29
2018-09-05T04:41:54.179Z,100216.73
2018-09-05T04:44:23.892Z,100217.94
2018-09-05T04:46:53.609Z,100222.31
2018-09-05T04:49:23.693Z,100221.98
2018-09-05T04:51:53.349Z,100225.20
2018-09-05T04:54:23.040Z,100225.67
2018-09-05T04:56:52.744Z,100231.75
2018-09-05T04:59:22.468Z,100231.94
2018-09-05T05:01:52.162Z,100232.42
2018-09-05T05:04:21.899Z,100238.48
2018-09-05T05:06:51.602Z,100233.58
2018-09-05T05:09:21.317Z,100241.52
2018-09-05T05:11:51.003Z,100240.80
2018-09-05T05:14:20.701Z,100244.36
2018-09-05T05:16:50.379Z,100252.06
2018-09-05T05:19:20.072Z,100250.28
2018-09-05T05:21:49.773Z,100243.60
2018-09-05T05:24:19.492Z,100245.25
2018-09-05T05:26:49.240Z,100240.23
2018-09-05T05:29:18.937Z,100245.40
2018-09-05T05:31:48.710Z,100241.66
2018-09-05T05:34:19.147Z,100246.80
2018-09-05T05:36:48.828Z,100243.11
2018-09-05T05:39:18.626Z,100245.62
2018-09-05T05:41:48.292Z,100248.91
2018-09-05T05:44:17.980Z,100249.80
2018-09-05T05:46:47.775Z,100250.14
2018-09-05T05:49:17.498Z,100250.66
2018-09-05T05:51:47.241Z,100256.00
2018-09-05T05:54:16.940Z,100253.84
2018-09-05T05:56:46.639Z,100255.53
2018-09-05T05:59:16.377Z,100265.42
2018-09-05T06:01:46.170Z,100268.97
2018-09-05T06:04:15.860Z,100263.37
2018-09-05T06:06:45.564Z,100260.92
2018-09-05T06:09:15.297Z,100259.70
2018-09-05T06:11:45.177Z,100261.03
2018-09-05T06:14:14.854Z,100262.19
2018-09-05T06:16:44.641Z,100259.77
2018-09-05T06:19:14.344Z,100260.67
2018-09-05T06:21:44.125Z,100263.14
2018-09-05T06:24:13.868Z,100263.38
2018-09-05T06:26:43.536Z,100261.36
2018-09-05T06:29:13.305Z,100270.19
2018-09-05T06:31:43.007Z,100268.57
2018-09-05T06:34:12.778Z,100272.82
2018-09-05T06:36:42.438Z,100277.14
2018-09-05T06:39:12.174Z,100271.27
2018-09-05T06:41:41.842Z,100272.82
2018-09-05T06:44:11.536Z,100275.72
2018-09-05T06:46:41.236Z,100277.70
2018-09-05T06:49:10.944Z,100277.53
2018-09-05T06:51:40.616Z,100277.97
2018-09-05T06:54:10.304Z,100281.41
2018-09-05T06:56:39.981Z,100282.36
2018-09-05T06:59:09.712Z,100282.08
2018-09-05T07:01:39.389Z,100289.95
2018-09-05T07:04:09.097Z,100290.12
2018-09-05T07:06:38.825Z,100289.42
2018-09-05T07:09:11.084Z,100296.79
2018-09-05T07:11:40.987Z,100288.34
2018-09-05T07:14:10.781Z,100294.46
2018-09-05T07:16:40.521Z,100288.83
2018-09-05T07:19:11.379Z,100296.78
2018-09-05T07:21:41.321Z,100301.00
2018-09-05T07:24:11.010Z,100299.20
2018-09-05T07:26:40.697Z,100306.03
2018-09-05T07:29:10.393Z,100299.78
2018-09-05T07:31:40.113Z,100303.25
2018-09-05T07:34:09.785Z,100300.27
2018-09-05T07:36:39.524Z,100297.95
2018-09-05T07:39:10.441Z,100301.86
2018-09-05T07:41:40.819Z,100301.23
2018-09-05T07:44:10.507Z,100300.95
2018-09-05T07:46:40.255Z,100297.81
2018-09-05T07:49:10.400Z,100297.09
2018-09-05T07:51:40.163Z,100296.45
2018-09-05T07:54:09.846Z,100299.47
2018-09-05T07:56:39.594Z,100298.12
2018-09-05T07:59:09.388Z,100305.10
2018-09-05T08:01:39.153Z,100300.16
2018-09-05T08:04:09.328Z,100302.34
2018-09-05T08:06:39.141Z,100305.81
2018-09-05T08:09:10.955Z,100303.35
2018-09-05T08:11:40.762Z,100304.27
2018-09-05T08:14:10.846Z,100298.66
2018-09-05T08:16:40.603Z,100297.63
2018-09-05T08:19:10.285Z,100302.23
2018-09-05T08:21:40.018Z,100302.01
2018-09-05T08:24:09.744Z,100298.95
2018-09-05T08:26:39.489Z,100308.74
2018-09-05T08:29:09.198Z,100302.31
2018-09-05T08:31:38.876Z,100295.98
2018-09-05T08:34:08.617Z,100289.96
2018-09-05T08:36:38.423Z,100292.00
2018-09-05T08:39:11.881Z,100291.19
2018-09-05T08:41:41.588Z,100295.03
2018-09-05T08:44:11.444Z,100296.25
2018-09-05T08:46:41.064Z,100301.27
2018-09-05T08:49:10.785Z,100291.90
2018-09-05T08:51:40.506Z,100294.47
2018-09-05T08:54:10.196Z,100300.00
2018-09-05T08:56:39.957Z,100294.39
2018-09-05T08:59:09.719Z,100296.42
2018-09-05T09:01:39.500Z,100303.06
2018-09-05T09:04:09.196Z,100300.41
2018-09-05T09:06:38.868Z,100296.59
2018-09-05T09:09:10.281Z,100296.50
2018-09-05T09:11:40.045Z,100297.42
2018-09-05T09:14:10.651Z,100301.03
2018-09-05T09:16:40.465Z,100301.25
2018-09-05T09:19:10.158Z,100294.90
2018-09-05T09:21:39.965Z,100294.87
2018-09-05T09:24:10.157Z,100290.98
2018-09-05T09:26:39.880Z,100291.30
2018-09-05T09:29:09.558Z,100290.69
2018-09-05T09:31:39.314Z,100283.02
2018-09-05T09:34:09.056Z,100284.72
2018-09-05T09:36:38.753Z,100281.04
2018-09-05T09:39:10.156Z,100278.75
2018-09-05T09:41:39.869Z,100277.02
2018-09-05T09:44:09.564Z,100269.95
2018-09-05T09:46:39.402Z,100277.48
2018-09-05T09:49:09.136Z,100268.50
2018-09-05T09:51:38.857Z,100271.53
2018-09-05T09:54:08.544Z,100266.51
2018-09-05T09:56:38.306Z,100267.57
2018-09-05T09:59:07.960Z,100273.80
2018-09-05T10:01:42.789Z,100259.58
2018-09-05T10:05:20.637Z,100256.00
2018-09-05T10:07:55.462Z,100251.07
2018-09-05T10:10:30.431Z,100252.21
2018-09-05T10:13:05.300Z,100255.47
2018-09-05T10:15:40.280Z,100250.16
2018-09-05T10:18:15.289Z,100252.02
2018-09-05T10:20:45.050Z,100253.03
2018-09-05T10:23:14.760Z,100254.27
2018-09-05T10:25:44.446Z,100253.31
2018-09-05T10:28:14.136Z,100242.71
2018-09-05T10:30:43.820Z,100241.72
2018-09-05T10:33:13.526Z,100234.52
2018-09-05T10:35:43.235Z,100237.63
2018-09-05T10:38:12.965Z,100239.05
2018-09-05T10:40:42.652Z,100237.02
2018-09-05T10:43:12.384Z,100231.99
2018-09-05T10:45:42.074Z,100231.10
2018-09-05T10:48:11.956Z,100231.78
2018-09-05T10:50:41.651Z,100229.44
2018-09-05T10:53:11.361Z,100227.78
2018-09-05T10:55:41.097Z,100225.11
2018-09-05T10:58:10.840Z,100214.82
2018-09-05T11:00:40.510Z,100220.30
2018-09-05T11:03:10.257Z,100217.33
2018-09-05T11:05:39.988Z,100211.16
2018-09-05T11:08:09.676Z,100209.80
2018-09-05T11:10:39.396Z,100213.64
2018-09-05T11:13:09.113Z,100204.23
2018-09-05T11:15:38.807Z,100205.03
2018-09-05T11:18:08.542Z,100192.95
2018-09-05T11:20:38.327Z,100203.83
2018-09-05T11:23:07.988Z,100204.42
2018-09-05T11:25:37.744Z,100200.61
2018-09-05T11:28:07.392Z,100195.03
2018-09-05T11:30:37.192Z,100196.19
2018-09-05T11:33:06.931Z,100193.34
2018-09-05T11:35:36.611Z,100196.59
2018-09-05T11:38:06.384Z,100192.08
2018-09-05T11:40:36.125Z,100194.52
2018-09-05T11:43:05.889Z,100194.02
2018-09-05T11:45:35.600Z,100185.38
2018-09-05T11:48:05.343Z,100183.48
2018-09-05T11:50:35.060Z,100181.67
2018-09-05T11:53:04.720Z,100184.41
2018-09-05T11:55:34.407Z,100187.97
2018-09-05T11:58:04.196Z,100179.49
2018-09-05T12:00:33.908Z,100172.06
2018-09-05T12:03:03.560Z,100171.55
2018-09-05T12:05:33.260Z,100176.86
2018-09-05T12:08:02.925Z,100173.87
2018-09-05T12:10:33.272Z,100172.66
2018-09-05T12:13:02.953Z,100166.78
2018-09-05T12:15:32.668Z,100163.24
2018-09-05T12:18:02.384Z,100171.06
2018-09-05T12:20:32.088Z,100166.76
2018-09-05T12:23:01.776Z,100165.77
2018-09-05T12:25:31.572Z,100163.02
2018-09-05T12:28:01.277Z,100147.50
2018-09-05T12:30:30.936Z,100146.58
2018-09-05T12:33:00.664Z,100147.03
2018-09-05T12:35:30.356Z,100152.64
2018-09-05T12:38:00.056Z,100144.41
2018-09-05T12:40:29.727Z,100150.77
2018-09-05T12:42:59.398Z,100147.73
2018-09-05T12:45:29.168Z,100142.77
2018-09-05T12:47:58.896Z,100142.20
2018-09-05T12:50:28.591Z,100140.92
2018-09-05T12:52:58.317Z,100143.16
2018-09-05T12:55:27.976Z,100145.91
2018-09-05T12:57:57.635Z,100134.54
2018-09-05T13:00:27.641Z,100131.00
2018-09-05T13:02:57.312Z,100132.46
2018-09-05T13:05:27.053Z,100127.22
2018-09-05T13:07:56.770Z,100131.39
2018-09-05T13:10:26.468Z,100135.83
2018-09-05T13:12:56.151Z,100135.27
2018-09-05T13:15:25.844Z,100130.03
2018-09-05T13:17:55.535Z,100125.37
2018-09-05T13:20:25.229Z,100127.04
2018-09-05T13:22:55.010Z,100117.09
2018-09-05T13:25:24.699Z,100116.83
2018-09-05T13:27:54.401Z,100117.09
2018-09-05T13:30:24.084Z,100115.45
2018-09-05T13:32:53.753Z,100106.95
2018-09-05T13:35:23.541Z,100105.30
2018-09-05T13:37:53.188Z,100099.52
2018-09-05T13:40:22.844Z,100099.00
2018-09-05T13:42:52.543Z,100095.96
2018-09-05T13:45:22.236Z,100091.26
2018-09-05T13:47:51.935Z,100085.77
2018-09-05T13:50:21.660Z,100083.58
2018-09-05T13:52:51.308Z,100092.36
2018-09-05T13:55:21.016Z,100086.61
2018-09-05T13:57:50.710Z,100085.52
2018-09-05T14:00:20.428Z,100087.42
2018-09-05T14:02:50.158Z,100077.48
2018-09-05T14:05:19.837Z,100080.23
2018-09-05T14:07:49.520Z,100081.61
2018-09-05T14:10:19.193Z,100081.61
2018-09-05T14:12:48.873Z,100079.16
2018-09-05T14:15:18.542Z,100080.83
2018-09-05T14:17:48.256Z,100075.31
2018-09-05T14:20:17.998Z,100073.38
2018-09-05T14:22:47.697Z,100072.28
2018-09-05T14:25:17.445Z,100073.38
2018-09-05T14:27:47.132Z,100077.76
2018-09-05T14:30:16.815Z,100068.31
2018-09-05T14:32:46.501Z,100069.47
2018-09-05T14:35:16.181Z,100061.16
2018-09-05T14:37:45.893Z,100062.73
2018-09-05T14:40:15.557Z,100063.74
2018-09-05T14:42:45.280Z,100061.16
2018-09-05T14:45:14.950Z,100064.87
2018-09-05T14:47:44.590Z,100053.59
2018-09-05T14:50:14.288Z,100059.83
2018-09-05T14:52:43.987Z,100051.03
2018-09-05T14:55:13.656Z,100057.20
2018-09-05T14:57:43.369Z,100058.17
2018-09-05T15:00:13.069Z,100052.95
2018-09-05T15:02:42.728Z,100049.63
2018-09-05T15:05:12.444Z,100049.83
2018-09-05T15:07:46.200Z,100046.73
2018-09-05T15:10:15.956Z,100047.23
2018-09-05T15:12:46.052Z,100039.83
2018-09-05T15:15:16.404Z,100042.49
2018-09-05T15:17:46.155Z,100040.25
2018-09-05T15:20:15.844Z,100040.42
2018-09-05T15:22:45.520Z,100040.48
2018-09-05T15:25:15.244Z,100041.54
2018-09-05T15:27:44.948Z,100035.19
2018-09-05T15:30:14.683Z,100033.91
2018-09-05T15:32:44.371Z,100031.89
2018-09-05T15:35:14.049Z,100036.21
2018-09-05T15:37:43.795Z,100027.73
2018-09-05T15:40:13.530Z,100020.59
2018-09-05T15:42:43.245Z,100026.83
2018-09-05T15:45:12.888Z,100029.59
2018-09-05T15:47:42.622Z,100026.56
2018-09-05T15:50:12.441Z,100028.43
2018-09-05T15:52:42.120Z,100024.00
2018-09-05T15:55:14.176Z,100024.50
2018-09-05T15:57:44.981Z,100025.08
2018-09-05T16:00:14.715Z,100022.08
2018-09-05T16:02:44.453Z,100021.27
2018-09-05T16:05:14.148Z,100019.55
2018-09-05T16:07:43.840Z,100012.78
2018-09-05T16:10:13.552Z,100010.44
2018-09-05T16:12:43.307Z,100011.64
2018-09-05T16:15:13.080Z,100011.12
2018-09-05T16:17:42.735Z,100015.38
2018-09-05T16:20:12.456Z,100008.84
2018-09-05T16:22:42.144Z,100009.91
2018-09-05T16:25:11.885Z,100006.52
2018-09-05T16:27:41.568Z,100009.95
2018-09-05T16:30:11.316Z,100005.81
2018-09-05T16:32:40.992Z,100007.19
2018-09-05T16:35:10.704Z,100003.01
2018-09-05T16:37:40.388Z,100001.27
2018-09-05T16:40:10.112Z,100003.71
2018-09-05T16:42:39.779Z,100000.67
2018-09-05T16:45:09.590Z,100007.52
2018-09-05T16:47:39.266Z,100005.34
2018-09-05T16:50:08.988Z,100005.63
2018-09-05T16:52:38.677Z,99998.42
2018-09-05T16:55:08.360Z,100001.08
2018-09-05T16:57:38.041Z,100004.33
2018-09-05T17:00:07.960Z,99996.38
2018-09-05T17:02:37.602Z,99997.67
2018-09-05T17:05:07.362Z,99992.91
2018-09-05T17:07:37.096Z,100000.55
2018-09-05T17:10:06.860Z,100000.72
2018-09-05T17:12:36.593Z,100006.06
2018-09-05T17:15:06.317Z,100003.50
2018-09-05T17:17:36.022Z,99999.31
2018-09-05T17:20:05.780Z,99997.61
2018-09-05T17:22:35.522Z,99998.59
2018-09-05T17:25:05.290Z,100001.83
2018-09-05T17:27:34.954Z,99999.16
2018-09-05T17:30:05.073Z,100002.45
2018-09-05T17:32:34.745Z,100004.58
2018-09-05T17:35:04.503Z,100003.67
2018-09-05T17:37:34.198Z,100003.28
2018-09-05T17:40:03.900Z,100004.42
2018-09-05T17:42:33.577Z,100005.69
2018-09-05T17:45:03.314Z,100009.79
2018-09-05T17:47:32.972Z,100003.71
2018-09-05T17:50:02.774Z,100002.55
2018-09-05T17:52:32.477Z,100002.05
2018-09-05T17:55:02.136Z,100009.36
2018-09-05T17:57:31.770Z,100009.20
2018-09-05T18:00:01.472Z,100005.56
2018-09-05T18:02:31.220Z,100011.38
2018-09-05T18:05:00.877Z,100010.14
2018-09-05T18:07:30.580Z,100005.73
2018-09-05T18:10:00.261Z,100015.47
2018-09-05T18:12:29.932Z,100013.20
2018-09-05T18:14:59.632Z,100011.88
2018-09-05T18:17:29.272Z,100011.95
2018-09-05T18:19:58.959Z,100011.59
2018-09-05T18:22:28.672Z,100014.98
2018-09-05T18:24:58.454Z,100017.90
2018-09-05T18:27:28.152Z,100014.81
2018-09-05T18:29:57.819Z,100014.75
2018-09-05T18:32:27.447Z,100022.11
2018-09-05T18:34:57.144Z,100018.84
2018-09-05T18:37:26.864Z,100019.50
2018-09-05T18:39:56.516Z,100023.98
2018-09-05T18:42:26.224Z,100021.25
2018-09-05T18:44:55.903Z,100026.17
2018-09-05T18:47:25.584Z,100031.08
2018-09-05T18:49:55.335Z,100029.47
2018-09-05T18:52:25.001Z,100026.63
2018-09-05T18:54:54.699Z,100027.70
2018-09-05T18:57:24.716Z,100029.15
2018-09-05T18:59:54.383Z,100034.16
2018-09-05T19:02:24.252Z,100029.19
2018-09-05T19:04:53.981Z,100028.58
2018-09-05T19:07:23.636Z,100024.36
2018-09-05T19:09:53.596Z,100024.39
2018-09-05T19:12:23.235Z,100029.87
2018-09-05T19:14:52.921Z,100024.42
2018-09-05T19:17:22.624Z,100022.69
2018-09-05T19:19:52.289Z,100026.02
2018-09-05T19:22:21.990Z,100025.81
2018-09-05T19:24:51.985Z,100020.23
2018-09-05T19:27:21.671Z,100014.48
2018-09-05T19:29:51.665Z,100021.21
2018-09-05T19:32:21.341Z,100021.30
2018-09-05T19:34:51.012Z,100017.78
2018-09-05T19:37:20.693Z,100017.09
2018-09-05T19:39:50.389Z,100018.89
2018-09-05T19:42:20.175Z,100015.05
2018-09-05T19:44:49.833Z,100014.12
2018-09-05T19:47:19.572Z,100012.70
2018-09-05T19:49:49.377Z,100010.91
2018-09-05T19:52:19.131Z,100006.91
2018-09-05T19:54:48.918Z,100013.09
2018-09-05T19:57:18.709Z,100008.11
2018-09-05T19:59:48.407Z,100002.59
2018-09-05T20:02:18.104Z,100008.34
2018-09-05T20:04:47.783Z,100007.14
2018-09-05T20:07:17.469Z,100009.24
2018-09-05T20:09:47.204Z,100007.34
2018-09-05T20:12:16.940Z,100004.34
2018-09-05T20:14:46.656Z,100011.73
2018-09-05T20:17:16.369Z,100008.55
2018-09-05T20:19:46.157Z,100010.06
2018-09-05T20:22:15.849Z,100010.30
2018-09-05T20:24:45.594Z,100010.44
2018-09-05T20:27:15.280Z,100010.52
2018-09-05T20:29:45.001Z,100010.44
2018-09-05T20:32:14.727Z,100011.47
2018-09-05T20:34:44.384Z,100014.99
2018-09-05T20:37:14.064Z,100010.30
2018-09-05T20:39:43.720Z,100005.09
2018-09-05T20:42:13.428Z,100010.52
2018-09-05T20:44:43.112Z,100008.11
2018-09-05T20:47:12.772Z,100011.41
2018-09-05T20:49:42.468Z,100005.97
2018-09-05T20:52:12.218Z,100008.02
2018-09-05T20:54:41.852Z,100004.19
2018-09-05T20:57:11.564Z,100003.06
2018-09-05T20:59:41.235Z,100001.31
2018-09-05T21:02:10.912Z,99999.36
2018-09-05T21:04:40.635Z,99999.30
2018-09-05T21:07:10.376Z,100000.74
2018-09-05T21:09:40.072Z,99995.00
2018-09-05T21:12:09.765Z,99993.70
2018-09-05T21:14:39.436Z,99989.98
2018-09-05T21:17:09.128Z,99991.77
2018-09-05T21:19:38.771Z,99987.36
2018-09-05T21:22:08.463Z,99982.75
2018-09-05T21:24:38.136Z,99984.61
2018-09-05T21:27:07.816Z,99988.50
2018-09-05T21:29:37.797Z,99981.00
2018-09-05T21:32:07.492Z,99983.53
2018-09-05T21:34:37.375Z,99988.11
2018-09-05T21:37:07.120Z,99987.70
2018-09-05T21:39:36.772Z,99984.03
2018-09-05T21:42:06.470Z,99981.73
2018-09-05T21:44:36.136Z,99983.19
2018-09-05T21:47:05.845Z,99985.81
2018-09-05T21:49:35.496Z,99986.25
2018-09-05T21:52:05.268Z,99987.52
2018-09-05T21:54:34.971Z,99989.22
2018-09-05T21:57:04.672Z,99988.75
2018-09-05T21:59:34.440Z,99986.17
2018-09-05T22:02:04.140Z,99985.70
2018-09-05T22:04:33.817Z,99988.22
2018-09-05T22:07:03.517Z,99997.53
2018-09-05T22:09:33.220Z,99995.58
2018-09-05T22:12:02.847Z,99993.29
2018-09-05T22:14:32.544Z,99990.93
2018-09-05T22:17:02.331Z,99995.40
2018-09-05T22:19:32.000Z,99993.19
2018-09-05T22:22:01.728Z,99987.25
2018-09-05T22:24:31.385Z,99988.80
2018-09-05T22:27:01.248Z,99996.00
2018-09-05T22:29:30.909Z,99994.33
2018-09-05T22:32:00.559Z,99990.51
2018-09-05T22:34:30.277Z,99991.53
2018-09-05T22:36:59.949Z,99993.02
2018-09-05T22:39:29.609Z,99989.39
2018-09-05T22:41:59.291Z,99985.51
2018-09-05T22:44:39.913Z,99989.06
2018-09-05T22:47:20.708Z,99984.48
2018-09-05T22:51:08.209Z,99983.34
2018-09-05T22:56:04.656Z,99981.36
2018-09-05T22:59:46.069Z,99973.77
2018-09-05T23:03:28.649Z,99969.28
2018-09-05T23:06:24.905Z,99969.17
2018-09-05T23:08:54.636Z,99967.19
2018-09-05T23:12:00.609Z,99970.74
2018-09-05T23:14:41.713Z,99963.87
2018-09-05T23:17:22.740Z,99964.08
2018-09-05T23:22:10.675Z,99963.83
2018-09-05T23:24:40.366Z,99961.66
2018-09-05T23:27:10.062Z,99955.33
2018-09-05T23:29:39.730Z,99954.08
2018-09-05T23:32:09.428Z,99953.55
2018-09-05T23:34:39.107Z,99937.73
2018-09-05T23:37:08.860Z,99940.66
2018-09-05T23:39:38.549Z,99937.31
2018-09-05T23:42:08.265Z,99930.05
2018-09-05T23:44:37.921Z,99929.41
2018-09-05T23:47:07.599Z,99932.65
2018-09-05T23:49:37.309Z,99928.12
2018-09-05T23:52:07.079Z,99934.47
2018-09-05T23:54:36.765Z,99934.89
2018-09-05T23:57:06.477Z,99928.23
2018-09-05T23:59:36.153Z,99932.28
